createdAt,value
2018-08-23T00:00:41.568Z,0.00
2018-08-23T00:01:41.551Z,0.00
2018-08-23T00:02:41.537Z,0.00
2018-08-23T00:03:41.634Z,0.00
2018-08-23T00:04:41.509Z,0.00
2018-08-23T00:05:41.495Z,0.00
2018-08-23T00:06:41.481Z,0.00
2018-08-23T00:07:41.477Z,0.00
2018-08-23T00:08:41.456Z,0.00
2018-08-23T00:09:41.455Z,0.00
2018-08-23T00:10:41.425Z,0.00
2018-08-23T00:11:41.421Z,0.00
2018-08-23T00:12:41.399Z,0.00
2018-08-23T00:13:41.402Z,0.00
2018-08-23T00:14:41.369Z,0.00
2018-08-23T00:15:41.354Z,0.00
2018-08-23T00:16:41.387Z,0.00
2018-08-23T00:17:41.325Z,0.00
2018-08-23T00:18:41.311Z,0.00
2018-08-23T00:19:41.296Z,0.00
2018-08-23T00:20:41.283Z,0.00
2018-08-23T00:21:41.270Z,0.00
2018-08-23T00:22:41.252Z,0.00
2018-08-23T00:23:41.242Z,0.00
2018-08-23T00:24:41.226Z,0.00
2018-08-23T00:25:41.212Z,0.00
2018-08-23T00:26:41.196Z,0.00
2018-08-23T00:27:41.183Z,0.00
2018-08-23T00:28:41.172Z,0.00
2018-08-23T00:29:41.153Z,0.00
2018-08-23T00:30:41.139Z,0.00
2018-08-23T00:31:41.124Z,0.00
2018-08-23T00:32:41.113Z,0.00
2018-08-23T00:33:41.100Z,0.00
2018-08-23T00:34:41.083Z,0.00
2018-08-23T00:35:41.067Z,0.00
2018-08-23T00:36:41.057Z,0.00
2018-08-23T00:37:41.045Z,0.00
2018-08-23T00:38:41.025Z,0.00
2018-08-23T00:39:41.014Z,0.00
2018-08-23T00:40:40.995Z,0.00
2018-08-23T00:41:40.980Z,0.00
2018-08-23T00:42:40.976Z,0.00
2018-08-23T00:43:40.951Z,0.00
2018-08-23T00:44:40.942Z,0.00
2018-08-23T00:45:40.922Z,0.00
2018-08-23T00:46:40.908Z,0.00
2018-08-23T00:47:40.895Z,0.00
2018-08-23T00:48:40.880Z,0.00
2018-08-23T00:49:40.869Z,0.00
2018-08-23T00:50:40.850Z,0.00
2018-08-23T00:51:40.836Z,0.00
2018-08-23T00:52:40.827Z,0.00
2018-08-23T00:53:40.807Z,0.00
2018-08-23T00:54:40.791Z,0.00
2018-08-23T00:55:40.777Z,0.00
2018-08-23T00:56:40.763Z,0.00
2018-08-23T00:57:40.747Z,0.00
2018-08-23T00:58:40.732Z,0.00
2018-08-23T00:59:40.726Z,0.00
2018-08-23T01:00:40.703Z,0.00
2018-08-23T01:01:40.687Z,0.00
2018-08-23T01:02:40.675Z,0.00
2018-08-23T01:03:40.660Z,0.00
2018-08-23T01:04:40.646Z,0.00
2018-08-23T01:05:40.631Z,0.00
2018-08-23T01:06:40.616Z,0.00
2018-08-23T01:07:40.601Z,0.00
2018-08-23T01:08:40.585Z,0.00
2018-08-23T01:09:40.571Z,0.00
2018-08-23T01:10:40.556Z,0.00
2018-08-23T01:11:40.541Z,0.00
2018-08-23T01:12:40.526Z,0.00
2018-08-23T01:13:40.510Z,0.00
2018-08-23T01:14:40.497Z,0.00
2018-08-23T01:15:40.482Z,0.00
2018-08-23T01:16:40.469Z,0.00
2018-08-23T01:17:40.453Z,0.00
2018-08-23T01:18:40.438Z,0.00
2018-08-23T01:19:40.424Z,0.00
2018-08-23T01:20:40.415Z,0.00
2018-08-23T01:21:40.393Z,0.00
2018-08-23T01:22:40.379Z,0.00
2018-08-23T01:23:40.363Z,0.00
2018-08-23T01:24:40.351Z,0.00
2018-08-23T01:25:40.332Z,0.00
2018-08-23T01:26:40.316Z,0.00
2018-08-23T01:27:40.303Z,0.00
2018-08-23T01:28:40.292Z,0.00
2018-08-23T01:29:40.276Z,0.00
2018-08-23T01:30:40.262Z,0.00
2018-08-23T01:31:40.244Z,0.00
2018-08-23T01:32:40.232Z,0.00
2018-08-23T01:33:40.214Z,0.00
2018-08-23T01:34:40.201Z,0.00
2018-08-23T01:35:40.188Z,0.00
2018-08-23T01:36:40.169Z,0.00
2018-08-23T01:37:40.157Z,0.00
2018-08-23T01:38:40.139Z,0.00
2018-08-23T01:39:40.124Z,0.00
2018-08-23T01:40:40.108Z,0.00
2018-08-23T01:41:40.096Z,0.00
2018-08-23T01:42:40.081Z,0.00
2018-08-23T01:43:40.064Z,0.00
2018-08-23T01:44:40.049Z,0.00
2018-08-23T01:45:40.033Z,0.00
2018-08-23T01:46:40.019Z,0.00
2018-08-23T01:47:40.004Z,0.00
2018-08-23T01:48:39.989Z,0.00
2018-08-23T01:49:39.972Z,0.00
2018-08-23T01:50:39.957Z,0.00
2018-08-23T01:51:39.944Z,0.00
2018-08-23T01:52:39.928Z,0.00
2018-08-23T01:53:39.912Z,0.00
2018-08-23T01:54:39.898Z,0.00
2018-08-23T01:55:39.889Z,0.00
2018-08-23T01:56:39.867Z,0.00
2018-08-23T01:57:39.861Z,0.00
2018-08-23T01:58:39.840Z,0.00
2018-08-23T01:59:39.822Z,0.00
2018-08-23T02:00:39.808Z,0.00
2018-08-23T02:01:39.794Z,0.00
2018-08-23T02:02:39.777Z,0.00
2018-08-23T02:03:39.764Z,0.00
2018-08-23T02:04:39.746Z,0.00
2018-08-23T02:05:39.732Z,0.00
2018-08-23T02:06:39.717Z,0.00
2018-08-23T02:07:39.701Z,0.00
2018-08-23T02:08:39.688Z,0.00
2018-08-23T02:09:39.669Z,0.00
2018-08-23T02:10:39.656Z,0.00
2018-08-23T02:11:39.641Z,0.00
2018-08-23T02:12:39.628Z,0.00
2018-08-23T02:13:39.612Z,0.00
2018-08-23T02:14:39.596Z,0.00
2018-08-23T02:15:39.579Z,0.00
2018-08-23T02:16:39.563Z,0.00
2018-08-23T02:17:39.548Z,0.00
2018-08-23T02:18:39.535Z,0.00
2018-08-23T02:19:39.519Z,0.00
2018-08-23T02:20:39.505Z,0.00
2018-08-23T02:21:39.492Z,0.00
2018-08-23T02:22:39.473Z,0.00
2018-08-23T02:23:39.460Z,0.00
2018-08-23T02:24:39.448Z,0.00
2018-08-23T02:25:39.426Z,0.00
2018-08-23T02:26:39.413Z,0.00
2018-08-23T02:27:39.395Z,0.00
2018-08-23T02:28:39.384Z,0.00
2018-08-23T02:29:39.375Z,0.00
2018-08-23T02:30:39.349Z,0.00
2018-08-23T02:31:39.334Z,0.00
2018-08-23T02:32:39.318Z,0.00
2018-08-23T02:33:39.304Z,0.00
2018-08-23T02:34:39.288Z,0.00
2018-08-23T02:35:39.273Z,0.00
2018-08-23T02:36:39.257Z,0.00
2018-08-23T02:37:39.240Z,0.00
2018-08-23T02:38:39.227Z,0.00
2018-08-23T02:39:39.213Z,0.00
2018-08-23T02:40:39.202Z,0.00
2018-08-23T02:41:39.181Z,0.00
2018-08-23T02:42:39.166Z,0.00
2018-08-23T02:43:39.152Z,0.00
2018-08-23T02:44:39.142Z,0.00
2018-08-23T02:45:39.119Z,0.00
2018-08-23T02:46:39.105Z,0.00
2018-08-23T02:47:39.089Z,0.00
2018-08-23T02:48:39.074Z,0.00
2018-08-23T02:49:39.056Z,0.00
2018-08-23T02:50:39.041Z,0.00
2018-08-23T02:51:39.025Z,0.00
2018-08-23T02:52:39.011Z,0.00
2018-08-23T02:53:40.411Z,0.00
2018-08-23T02:54:38.980Z,0.00
2018-08-23T02:55:38.964Z,0.00
2018-08-23T02:56:38.953Z,0.00
2018-08-23T02:57:38.933Z,0.00
2018-08-23T02:58:38.916Z,0.00
2018-08-23T02:59:38.904Z,0.00
2018-08-23T03:00:38.933Z,0.00
2018-08-23T03:01:38.869Z,0.00
2018-08-23T03:02:38.855Z,0.00
2018-08-23T03:03:38.838Z,0.00
2018-08-23T03:04:38.825Z,0.00
2018-08-23T03:05:38.808Z,0.00
2018-08-23T03:06:38.793Z,0.00
2018-08-23T03:07:38.782Z,0.00
2018-08-23T03:08:38.762Z,0.00
2018-08-23T03:09:38.750Z,0.00
2018-08-23T03:10:38.732Z,0.00
2018-08-23T03:11:38.723Z,0.00
2018-08-23T03:12:38.700Z,0.00
2018-08-23T03:13:38.687Z,0.00
2018-08-23T03:14:38.668Z,0.00
2018-08-23T03:15:38.655Z,0.00
2018-08-23T03:16:38.639Z,0.00
2018-08-23T03:17:38.623Z,0.00
2018-08-23T03:18:38.607Z,0.00
2018-08-23T03:19:38.590Z,0.00
2018-08-23T03:20:38.578Z,0.00
2018-08-23T03:21:38.557Z,0.00
2018-08-23T03:22:38.545Z,0.00
2018-08-23T03:23:38.527Z,0.00
2018-08-23T03:24:38.514Z,0.00
2018-08-23T03:25:38.497Z,0.00
2018-08-23T03:26:38.481Z,0.00
2018-08-23T03:27:38.468Z,0.00
2018-08-23T03:28:38.452Z,0.00
2018-08-23T03:29:38.436Z,0.00
2018-08-23T03:30:38.507Z,0.00
2018-08-23T03:31:38.403Z,4.00
2018-08-23T03:32:38.388Z,4.00
2018-08-23T03:33:38.371Z,0.00
2018-08-23T03:34:38.358Z,0.00
2018-08-23T03:35:38.345Z,4.00
2018-08-23T03:36:38.327Z,4.00
2018-08-23T03:37:38.312Z,4.00
2018-08-23T03:38:38.294Z,4.00
2018-08-23T03:39:38.328Z,8.00
2018-08-23T03:40:38.262Z,8.00
2018-08-23T03:41:38.246Z,8.00
2018-08-23T03:42:38.231Z,8.00
2018-08-23T03:43:38.216Z,8.00
2018-08-23T03:44:38.201Z,12.00
2018-08-23T03:45:38.184Z,16.00
2018-08-23T03:46:38.167Z,16.00
2018-08-23T03:47:38.153Z,20.00
2018-08-23T03:48:38.146Z,24.00
2018-08-23T03:49:38.129Z,24.00
2018-08-23T03:50:38.107Z,28.00
2018-08-23T03:51:38.090Z,32.00
2018-08-23T03:52:38.165Z,32.00
2018-08-23T03:53:38.058Z,36.00
2018-08-23T03:54:38.042Z,40.00
2018-08-23T03:55:38.026Z,48.00
2018-08-23T03:56:38.011Z,52.00
2018-08-23T03:57:37.994Z,60.00
2018-08-23T03:58:37.988Z,64.00
2018-08-23T03:59:37.963Z,72.00
2018-08-23T04:00:37.947Z,76.00
2018-08-23T04:01:37.939Z,84.00
2018-08-23T04:02:37.915Z,92.00
2018-08-23T04:03:37.899Z,100.00
2018-08-23T04:04:37.888Z,108.00
2018-08-23T04:05:37.871Z,120.00
2018-08-23T04:06:37.853Z,124.00
2018-08-23T04:07:37.839Z,136.00
2018-08-23T04:08:37.822Z,144.00
2018-08-23T04:09:37.807Z,156.00
2018-08-23T04:10:37.789Z,168.00
2018-08-23T04:11:37.774Z,180.00
2018-08-23T04:12:37.760Z,192.00
2018-08-23T04:13:37.744Z,200.00
2018-08-23T04:14:37.725Z,212.00
2018-08-23T04:15:37.710Z,224.00
2018-08-23T04:16:37.698Z,240.00
2018-08-23T04:17:37.678Z,252.00
2018-08-23T04:18:37.662Z,264.00
2018-08-23T04:19:37.646Z,284.00
2018-08-23T04:20:37.631Z,300.00
2018-08-23T04:21:37.614Z,336.00
2018-08-23T04:22:37.598Z,376.00
2018-08-23T04:23:37.583Z,400.00
2018-08-23T04:24:37.568Z,408.00
2018-08-23T04:25:37.553Z,420.00
2018-08-23T04:26:37.539Z,428.00
2018-08-23T04:27:37.519Z,436.00
2018-08-23T04:28:37.509Z,444.00
2018-08-23T04:29:37.492Z,464.00
2018-08-23T04:30:37.471Z,488.00
2018-08-23T04:31:37.458Z,524.00
2018-08-23T04:32:37.440Z,572.00
2018-08-23T04:33:37.424Z,616.00
2018-08-23T04:34:37.408Z,660.00
2018-08-23T04:35:37.396Z,684.00
2018-08-23T04:36:37.381Z,704.00
2018-08-23T04:37:37.364Z,680.00
2018-08-23T04:38:37.347Z,672.00
2018-08-23T04:39:37.334Z,696.00
2018-08-23T04:40:37.318Z,744.00
2018-08-23T04:41:37.299Z,820.00
2018-08-23T04:42:37.284Z,864.00
2018-08-23T04:43:37.268Z,860.00
2018-08-23T04:44:37.251Z,880.00
2018-08-23T04:45:37.236Z,920.00
2018-08-23T04:46:37.220Z,940.00
2018-08-23T04:47:37.203Z,920.00
2018-08-23T04:48:37.191Z,936.00
2018-08-23T04:49:37.172Z,976.00
2018-08-23T04:50:37.159Z,968.00
2018-08-23T04:51:37.169Z,952.00
2018-08-23T04:52:37.125Z,948.00
2018-08-23T04:53:37.137Z,960.00
2018-08-23T04:54:37.098Z,960.00
2018-08-23T04:55:37.079Z,972.00
2018-08-23T04:56:37.064Z,976.00
2018-08-23T04:57:37.047Z,996.00
2018-08-23T04:58:37.031Z,1012.00
2018-08-23T04:59:37.016Z,1016.00
2018-08-23T05:00:36.999Z,1036.00
2018-08-23T05:01:36.991Z,1072.00
2018-08-23T05:02:36.972Z,1104.00
2018-08-23T05:03:36.951Z,1156.00
2018-08-23T05:04:36.940Z,1160.00
2018-08-23T05:05:36.926Z,1164.00
2018-08-23T05:06:36.904Z,1180.00
2018-08-23T05:07:36.894Z,1196.00
2018-08-23T05:08:36.875Z,1204.00
2018-08-23T05:09:36.862Z,1220.00
2018-08-23T05:10:36.845Z,1236.00
2018-08-23T05:11:36.827Z,1256.00
2018-08-23T05:12:36.820Z,1264.00
2018-08-23T05:13:36.795Z,1280.00
2018-08-23T05:14:36.782Z,1288.00
2018-08-23T05:15:36.765Z,1296.00
2018-08-23T05:16:36.750Z,1316.00
2018-08-23T05:17:36.734Z,1344.00
2018-08-23T05:18:36.719Z,1380.00
2018-08-23T05:19:36.703Z,1412.00
2018-08-23T05:20:36.687Z,1416.00
2018-08-23T05:21:36.674Z,1436.00
2018-08-23T05:22:36.657Z,1464.00
2018-08-23T05:23:36.646Z,1456.00
2018-08-23T05:24:36.627Z,1456.00
2018-08-23T05:25:36.620Z,1464.00
2018-08-23T05:26:36.599Z,1476.00
2018-08-23T05:27:36.581Z,1488.00
2018-08-23T05:28:36.563Z,1500.00
2018-08-23T05:29:36.553Z,1516.00
2018-08-23T05:30:36.534Z,1528.00
2018-08-23T05:31:36.521Z,1544.00
2018-08-23T05:32:36.505Z,1556.00
2018-08-23T05:33:36.487Z,1568.00
2018-08-23T05:34:36.472Z,1588.00
2018-08-23T05:35:36.458Z,1620.00
2018-08-23T05:36:36.445Z,1644.00
2018-08-23T05:37:36.437Z,1668.00
2018-08-23T05:38:36.410Z,1692.00
2018-08-23T05:39:36.401Z,1720.00
2018-08-23T05:40:36.383Z,1748.00
2018-08-23T05:41:36.368Z,1776.00
2018-08-23T05:42:36.354Z,1800.00
2018-08-23T05:43:36.337Z,1832.00
2018-08-23T05:44:36.321Z,1876.00
2018-08-23T05:45:36.307Z,1908.00
2018-08-23T05:46:36.290Z,1924.00
2018-08-23T05:47:36.329Z,1924.00
2018-08-23T05:48:36.260Z,1912.00
2018-08-23T05:49:36.244Z,1904.00
2018-08-23T05:50:36.235Z,1908.00
2018-08-23T05:51:36.214Z,1920.00
2018-08-23T05:52:36.202Z,1948.00
2018-08-23T05:53:36.192Z,1980.00
2018-08-23T05:54:36.174Z,2020.00
2018-08-23T05:55:36.159Z,2052.00
2018-08-23T05:56:36.140Z,2088.00
2018-08-23T05:57:36.125Z,2116.00
2018-08-23T05:58:36.115Z,2144.00
2018-08-23T05:59:36.099Z,2168.00
2018-08-23T06:00:36.081Z,2188.00
2018-08-23T06:01:36.065Z,2216.00
2018-08-23T06:02:36.080Z,2252.00
2018-08-23T06:03:36.045Z,2280.00
2018-08-23T06:04:36.030Z,2300.00
2018-08-23T06:05:36.008Z,2316.00
2018-08-23T06:06:35.992Z,2316.00
2018-08-23T06:07:35.978Z,2312.00
2018-08-23T06:08:35.963Z,2312.00
2018-08-23T06:09:35.949Z,2316.00
2018-08-23T06:10:35.933Z,2332.00
2018-08-23T06:11:35.924Z,2352.00
2018-08-23T06:12:35.904Z,2372.00
2018-08-23T06:13:35.894Z,2388.00
2018-08-23T06:14:35.874Z,2396.00
2018-08-23T06:15:35.863Z,2420.00
2018-08-23T06:16:35.855Z,2440.00
2018-08-23T06:17:35.831Z,2460.00
2018-08-23T06:18:35.822Z,2496.00
2018-08-23T06:19:35.812Z,2544.00
2018-08-23T06:20:35.790Z,2616.00
2018-08-23T06:21:35.777Z,2692.00
2018-08-23T06:22:35.759Z,2716.00
2018-08-23T06:23:35.744Z,2756.00
2018-08-23T06:24:35.730Z,2796.00
2018-08-23T06:25:35.716Z,2844.00
2018-08-23T06:26:35.701Z,2888.00
2018-08-23T06:27:35.699Z,2920.00
2018-08-23T06:28:35.677Z,2948.00
2018-08-23T06:29:35.659Z,2964.00
2018-08-23T06:30:35.645Z,2960.00
2018-08-23T06:31:35.631Z,2956.00
2018-08-23T06:32:35.618Z,2952.00
2018-08-23T06:33:35.771Z,2936.00
2018-08-23T06:34:35.589Z,2912.00
2018-08-23T06:35:35.620Z,2924.00
2018-08-23T06:36:35.562Z,2940.00
2018-08-23T06:37:35.559Z,2944.00
2018-08-23T06:38:35.553Z,2948.00
2018-08-23T06:39:35.519Z,2960.00
2018-08-23T06:40:35.508Z,2972.00
2018-08-23T06:41:35.494Z,2984.00
2018-08-23T06:42:35.479Z,3008.00
2018-08-23T06:43:35.467Z,3028.00
2018-08-23T06:44:35.494Z,3088.00
2018-08-23T06:45:35.439Z,3116.00
2018-08-23T06:46:35.424Z,3144.00
2018-08-23T06:47:35.615Z,3184.00
2018-08-23T06:48:35.399Z,3220.00
2018-08-23T06:49:35.388Z,3268.00
2018-08-23T06:50:35.372Z,3316.00
2018-08-23T06:51:35.359Z,3368.00
2018-08-23T06:52:35.354Z,3424.00
2018-08-23T06:53:35.334Z,3484.00
2018-08-23T06:54:37.940Z,3544.00
2018-08-23T06:55:35.307Z,3700.00
2018-08-23T06:56:35.293Z,4796.00
2018-08-23T06:57:35.279Z,4784.00
2018-08-23T06:58:35.266Z,3900.00
2018-08-23T06:59:35.253Z,3964.00
2018-08-23T07:00:35.241Z,4068.00
2018-08-23T07:01:35.226Z,7612.00
2018-08-23T07:02:35.214Z,11680.00
2018-08-23T07:03:35.205Z,5904.00
2018-08-23T07:04:35.190Z,4640.00
2018-08-23T07:05:35.274Z,10976.00
2018-08-23T07:06:35.224Z,14588.00
2018-08-23T07:07:35.154Z,19008.00
2018-08-23T07:08:35.141Z,21088.00
2018-08-23T07:09:35.125Z,12816.00
2018-08-23T07:10:35.134Z,15924.00
2018-08-23T07:11:35.165Z,25024.00
2018-08-23T07:12:35.093Z,29056.00
2018-08-23T07:13:35.082Z,37440.00
2018-08-23T07:14:35.070Z,34400.00
2018-08-23T07:15:35.057Z,31776.00
2018-08-23T07:16:35.045Z,37504.00
2018-08-23T07:17:35.095Z,30816.00
2018-08-23T07:18:35.026Z,33888.00
2018-08-23T07:19:35.015Z,38016.00
2018-08-23T07:20:35.002Z,32704.00
2018-08-23T07:21:34.992Z,31040.00
2018-08-23T07:22:35.043Z,33792.00
2018-08-23T07:23:34.972Z,31552.00
2018-08-23T07:24:34.968Z,27744.00
2018-08-23T07:25:34.955Z,31008.00
2018-08-23T07:26:34.965Z,32064.00
2018-08-23T07:27:34.936Z,33056.00
2018-08-23T07:28:34.930Z,38208.00
2018-08-23T07:29:34.917Z,36608.00
2018-08-23T07:30:34.914Z,35360.00
2018-08-23T07:31:34.912Z,39232.00
2018-08-23T07:32:34.897Z,42848.00
2018-08-23T07:33:34.884Z,40544.00
2018-08-23T07:34:34.876Z,38336.00
2018-08-23T07:35:34.869Z,39488.00
2018-08-23T07:36:34.863Z,41024.00
2018-08-23T07:37:34.863Z,42400.00
2018-08-23T07:38:34.857Z,43136.00
2018-08-23T07:39:34.840Z,40896.00
2018-08-23T07:40:34.845Z,39296.00
2018-08-23T07:41:34.825Z,41152.00
2018-08-23T07:42:34.822Z,40288.00
2018-08-23T07:43:34.812Z,38496.00
2018-08-23T07:44:34.806Z,39776.00
2018-08-23T07:45:34.799Z,40928.00
2018-08-23T07:46:34.792Z,42048.00
2018-08-23T07:47:34.789Z,44384.00
2018-08-23T07:48:34.861Z,44960.00
2018-08-23T07:49:34.776Z,42976.00
2018-08-23T07:50:34.771Z,44576.00
2018-08-23T07:51:34.765Z,46528.00
2018-08-23T07:52:34.783Z,45376.00
2018-08-23T07:53:34.755Z,45504.00
2018-08-23T07:54:34.762Z,47808.00
2018-08-23T07:55:34.743Z,50496.00
2018-08-23T07:56:34.738Z,47616.00
2018-08-23T07:57:34.730Z,45056.00
2018-08-23T07:58:34.727Z,47872.00
2018-08-23T07:59:34.722Z,49120.00
2018-08-23T08:00:34.720Z,51712.00
2018-08-23T08:01:34.723Z,51264.00
2018-08-23T08:02:34.713Z,48992.00
2018-08-23T08:03:34.702Z,49440.00
2018-08-23T08:04:34.700Z,49824.00
2018-08-23T08:05:34.711Z,48768.00
2018-08-23T08:06:34.691Z,49152.00
2018-08-23T08:07:34.685Z,50880.00
2018-08-23T08:08:34.685Z,51840.00
2018-08-23T08:09:37.363Z,50720.00
2018-08-23T08:10:34.678Z,47136.00
2018-08-23T08:11:34.668Z,43264.00
2018-08-23T08:12:34.665Z,47136.00
2018-08-23T08:13:34.659Z,52928.00
2018-08-23T08:14:34.654Z,50880.00
2018-08-23T08:15:34.655Z,47168.00
2018-08-23T08:16:34.646Z,46176.00
2018-08-23T08:17:34.641Z,44768.00
2018-08-23T08:18:34.640Z,46848.00
2018-08-23T08:19:34.637Z,52480.00
2018-08-23T08:20:34.637Z,52800.00
2018-08-23T08:21:34.675Z,48608.00
2018-08-23T08:22:34.624Z,50176.00
2018-08-23T08:23:34.619Z,54432.00
2018-08-23T08:24:34.616Z,54016.00
2018-08-23T08:25:34.615Z,52896.00
2018-08-23T08:26:34.611Z,58240.00
2018-08-23T08:27:34.613Z,60160.00
2018-08-23T08:28:34.605Z,3292.00
2018-08-23T08:29:34.597Z,3300.00
2018-08-23T08:30:34.596Z,3312.00
2018-08-23T08:31:34.600Z,3312.00
2018-08-23T08:32:34.588Z,3332.00
2018-08-23T08:33:34.586Z,3332.00
2018-08-23T08:34:34.580Z,3340.00
2018-08-23T08:35:34.575Z,3328.00
2018-08-23T08:36:34.574Z,3368.00
2018-08-23T08:37:34.568Z,3368.00
2018-08-23T08:38:34.562Z,3392.00
2018-08-23T08:39:34.561Z,3408.00
2018-08-23T08:40:34.556Z,2708.00
2018-08-23T08:41:34.552Z,2448.00
2018-08-23T08:42:34.556Z,3268.00
2018-08-23T08:43:34.594Z,3280.00
2018-08-23T08:44:34.539Z,3284.00
2018-08-23T08:45:34.542Z,3308.00
2018-08-23T08:46:34.536Z,3328.00
2018-08-23T08:47:34.527Z,3352.00
2018-08-23T08:48:34.521Z,3472.00
2018-08-23T08:49:34.515Z,3488.00
2018-08-23T08:50:34.591Z,3500.00
2018-08-23T08:51:34.506Z,3452.00
2018-08-23T08:52:34.501Z,3476.00
2018-08-23T08:53:34.496Z,3488.00
2018-08-23T08:54:34.493Z,3492.00
2018-08-23T08:55:34.488Z,3520.00
2018-08-23T08:56:34.490Z,3540.00
2018-08-23T08:57:34.508Z,3560.00
2018-08-23T08:58:34.475Z,3568.00
2018-08-23T08:59:34.475Z,3564.00
2018-08-23T09:00:34.466Z,3588.00
2018-08-23T09:01:34.469Z,3596.00
2018-08-23T09:02:34.453Z,3612.00
2018-08-23T09:03:34.449Z,3624.00
2018-08-23T09:04:34.446Z,3640.00
2018-08-23T09:05:34.434Z,3668.00
2018-08-23T09:06:34.433Z,3688.00
2018-08-23T09:07:34.429Z,3700.00
2018-08-23T09:08:34.424Z,3752.00
2018-08-23T09:09:34.414Z,3728.00
2018-08-23T09:10:34.409Z,3728.00
2018-08-23T09:11:34.408Z,3736.00
2018-08-23T09:12:34.399Z,3764.00
2018-08-23T09:13:34.393Z,3780.00
2018-08-23T09:14:34.389Z,3804.00
2018-08-23T09:16:16.918Z,3832.00
2018-08-23T09:17:16.912Z,3848.00
2018-08-23T09:18:16.912Z,3864.00
2018-08-23T09:19:16.901Z,3896.00
2018-08-23T09:20:16.894Z,3904.00
2018-08-23T09:21:16.889Z,3936.00
2018-08-23T09:22:16.884Z,3952.00
2018-08-23T09:23:16.880Z,3976.00
2018-08-23T09:24:16.872Z,4004.00
2018-08-23T09:25:16.896Z,4036.00
2018-08-23T09:26:16.861Z,4060.00
2018-08-23T09:27:16.941Z,4080.00
2018-08-23T09:28:16.856Z,4096.00
2018-08-23T09:29:16.842Z,4132.00
2018-08-23T09:30:16.837Z,4156.00
2018-08-23T09:31:16.831Z,4188.00
2018-08-23T09:32:16.830Z,4220.00
2018-08-23T09:33:16.820Z,4244.00
2018-08-23T09:34:16.815Z,4276.00
2018-08-23T09:35:16.808Z,4328.00
2018-08-23T09:36:16.803Z,4388.00
2018-08-23T09:37:16.806Z,4436.00
2018-08-23T09:38:16.791Z,4452.00
2018-08-23T09:39:16.783Z,4488.00
2018-08-23T09:40:16.778Z,4488.00
2018-08-23T09:41:16.773Z,4508.00
2018-08-23T09:42:16.767Z,4524.00
2018-08-23T09:43:16.761Z,4528.00
2018-08-23T09:44:16.759Z,4532.00
2018-08-23T09:45:16.756Z,4540.00
2018-08-23T09:46:16.759Z,4544.00
2018-08-23T09:47:16.740Z,4552.00
2018-08-23T09:48:16.733Z,4572.00
2018-08-23T09:49:16.723Z,4620.00
2018-08-23T09:50:16.861Z,4660.00
2018-08-23T09:51:16.783Z,4688.00
2018-08-23T09:52:16.734Z,4728.00
2018-08-23T09:53:16.701Z,4760.00
2018-08-23T09:54:16.695Z,4768.00
2018-08-23T09:55:16.689Z,4784.00
2018-08-23T09:56:16.683Z,4776.00
2018-08-23T09:57:16.678Z,4868.00
2018-08-23T09:58:16.680Z,19712.00
2018-08-23T09:59:16.664Z,19808.00
2018-08-23T10:00:16.658Z,19776.00
2018-08-23T10:01:16.654Z,19840.00
2018-08-23T10:02:16.649Z,19872.00
2018-08-23T10:03:16.642Z,19840.00
2018-08-23T10:04:16.717Z,19936.00
2018-08-23T10:05:16.633Z,20064.00
2018-08-23T10:06:16.626Z,20064.00
2018-08-23T10:07:16.626Z,20064.00
2018-08-23T10:08:16.662Z,20064.00
2018-08-23T10:09:16.617Z,20128.00
2018-08-23T10:10:16.606Z,20160.00
2018-08-23T10:11:16.621Z,20256.00
2018-08-23T10:12:16.595Z,20320.00
2018-08-23T10:13:16.590Z,20480.00
2018-08-23T10:14:16.585Z,20704.00
2018-08-23T10:15:16.590Z,21024.00
2018-08-23T10:16:16.579Z,21184.00
2018-08-23T10:17:16.572Z,21280.00
2018-08-23T10:18:16.577Z,21280.00
2018-08-23T10:19:16.564Z,21472.00
2018-08-23T10:20:16.565Z,21696.00
2018-08-23T10:21:16.554Z,21920.00
2018-08-23T10:22:16.552Z,21792.00
2018-08-23T10:23:16.549Z,22208.00
2018-08-23T10:24:16.542Z,22656.00
2018-08-23T10:25:16.543Z,22688.00
2018-08-23T10:26:16.536Z,22752.00
2018-08-23T10:27:16.535Z,22624.00
2018-08-23T10:28:16.531Z,22688.00
2018-08-23T10:29:16.523Z,22912.00
2018-08-23T10:30:16.521Z,23104.00
2018-08-23T10:31:16.516Z,23264.00
2018-08-23T10:32:16.613Z,23456.00
2018-08-23T10:33:16.512Z,23936.00
2018-08-23T10:34:16.510Z,24512.00
2018-08-23T10:35:16.505Z,25760.00
2018-08-23T10:36:16.510Z,28864.00
2018-08-23T10:37:16.504Z,47136.00
2018-08-23T10:38:16.572Z,72224.00
2018-08-23T10:39:16.498Z,81600.00
2018-08-23T10:40:16.495Z,78016.00
2018-08-23T10:41:16.491Z,75808.00
2018-08-23T10:42:16.488Z,76288.00
2018-08-23T10:43:16.488Z,79328.00
2018-08-23T10:44:16.489Z,80128.00
2018-08-23T10:45:16.482Z,79712.00
2018-08-23T10:46:16.480Z,79680.00
2018-08-23T10:47:16.797Z,82048.00
2018-08-23T10:48:16.475Z,67456.00
2018-08-23T10:49:16.475Z,59392.00
2018-08-23T10:50:16.475Z,67872.00
2018-08-23T10:51:16.469Z,85856.00
2018-08-23T10:52:16.467Z,81952.00
2018-08-23T10:53:16.466Z,82304.00
2018-08-23T10:54:16.464Z,82144.00
2018-08-23T10:55:16.462Z,82656.00
2018-08-23T10:56:16.460Z,85824.00
2018-08-23T10:57:16.462Z,85472.00
2018-08-23T10:58:16.457Z,85632.00
2018-08-23T10:59:16.464Z,88480.00
2018-08-23T11:00:16.458Z,88224.00
2018-08-23T11:01:16.453Z,86528.00
2018-08-23T11:02:16.453Z,86528.00
2018-08-23T11:03:16.450Z,87104.00
2018-08-23T11:04:16.451Z,88256.00
2018-08-23T11:05:16.450Z,87456.00
2018-08-23T11:07:16.469Z,88992.00
2018-08-23T11:08:16.448Z,88032.00
2018-08-23T11:09:16.447Z,84064.00
2018-08-23T11:10:16.446Z,82464.00
2018-08-23T11:11:16.451Z,81600.00
2018-08-23T11:12:16.445Z,84736.00
2018-08-23T11:13:16.461Z,88448.00
2018-08-23T11:14:16.445Z,86528.00
2018-08-23T11:15:16.443Z,82112.00
2018-08-23T11:16:16.447Z,77152.00
2018-08-23T11:17:16.567Z,74944.00
2018-08-23T11:18:16.443Z,77024.00
2018-08-23T11:19:16.447Z,79712.00
2018-08-23T11:20:16.444Z,86016.00
2018-08-23T11:21:16.443Z,90496.00
2018-08-23T11:22:16.445Z,88512.00
2018-08-23T11:23:16.444Z,86720.00
2018-08-23T11:24:16.448Z,84224.00
2018-08-23T11:25:16.446Z,84640.00
2018-08-23T11:26:16.447Z,87744.00
2018-08-23T11:27:16.445Z,88160.00
2018-08-23T11:28:16.447Z,84192.00
2018-08-23T11:29:16.448Z,54432.00
2018-08-23T11:30:16.450Z,76064.00
2018-08-23T11:31:16.448Z,86368.00
2018-08-23T11:32:16.452Z,91648.00
2018-08-23T11:33:16.452Z,91424.00
2018-08-23T11:34:16.454Z,80832.00
2018-08-23T11:35:16.557Z,72704.00
2018-08-23T11:36:16.458Z,71968.00
2018-08-23T11:37:16.455Z,76064.00
2018-08-23T11:38:16.457Z,81248.00
2018-08-23T11:39:16.458Z,19552.00
2018-08-23T11:40:16.462Z,79808.00
2018-08-23T11:41:16.462Z,77184.00
2018-08-23T11:42:16.462Z,81984.00
2018-08-23T11:43:16.464Z,87872.00
2018-08-23T11:44:16.465Z,80160.00
2018-08-23T11:45:16.469Z,69952.00
2018-08-23T11:46:16.468Z,66592.00
2018-08-23T11:47:16.468Z,65184.00
2018-08-23T11:48:16.471Z,73056.00
2018-08-23T11:49:16.475Z,79680.00
2018-08-23T11:50:16.475Z,80992.00
2018-08-23T11:51:16.473Z,73920.00
2018-08-23T11:52:16.479Z,51744.00
2018-08-23T11:53:16.650Z,58176.00
2018-08-23T11:54:16.479Z,71168.00
2018-08-23T11:55:16.479Z,43488.00
2018-08-23T11:56:16.482Z,60160.00
2018-08-23T11:57:16.485Z,27456.00
2018-08-23T11:58:16.484Z,16384.00
2018-08-23T11:59:16.586Z,16352.00
2018-08-23T12:00:16.497Z,28448.00
2018-08-23T12:01:16.489Z,4556.00
2018-08-23T12:02:16.488Z,74880.00
2018-08-23T12:03:16.494Z,72448.00
2018-08-23T12:04:16.496Z,77280.00
2018-08-23T12:05:16.492Z,82560.00
2018-08-23T12:06:16.499Z,81440.00
2018-08-23T12:07:16.495Z,79040.00
2018-08-23T12:08:16.500Z,66240.00
2018-08-23T12:09:16.498Z,73184.00
2018-08-23T12:10:16.500Z,71360.00
2018-08-23T12:11:16.500Z,74080.00
2018-08-23T12:12:16.504Z,72384.00
2018-08-23T12:13:16.510Z,75328.00
2018-08-23T12:14:16.504Z,88768.00
2018-08-23T12:15:16.505Z,67648.00
2018-08-23T12:16:16.508Z,63872.00
2018-08-23T12:17:16.512Z,64192.00
2018-08-23T12:18:16.511Z,42848.00
2018-08-23T12:19:16.511Z,2624.00
2018-08-23T12:20:16.513Z,26208.00
2018-08-23T12:21:16.514Z,18272.00
2018-08-23T12:22:16.515Z,13508.00
2018-08-23T12:23:16.517Z,13036.00
2018-08-23T12:24:16.516Z,13016.00